Time;durP1;ratioP1;P1;durP2;ratioP2;P2;SDS_P1;SDS_P2;PMS_P1;PMS_P2;Temp;Humidity;BMP_temperature;BMP_pressure;BME280_temperature;BME280_humidity;BME280_pressure;Samples;Min_cycle;Max_cycle;Signal;HPM_P1;HPM_P2
2021/10/29 00:01:55;;;;;;;25.75;8.07;;;5.50;99.90;;;;;;5047363;28;20114;-68
2021/10/29 00:04:21;;;;;;;51.70;9.35;;;5.50;99.90;;;;;;5041489;28;20100;-68
2021/10/29 00:06:46;;;;;;;17.85;7.78;;;5.50;99.90;;;;;;5039456;28;20102;-68
2021/10/29 00:09:12;;;;;;;16.67;7.82;;;5.40;99.90;;;;;;5045193;28;20029;-68
2021/10/29 00:11:38;;;;;;;37.20;9.70;;;5.40;99.90;;;;;;5040289;28;20028;-68
2021/10/29 00:14:04;;;;;;;18.85;8.02;;;5.40;99.90;;;;;;5042667;28;20044;-68
2021/10/29 00:16:29;;;;;;;20.38;7.60;;;5.40;99.90;;;;;;5043851;28;20045;-68
2021/10/29 00:18:55;;;;;;;47.30;9.65;;;5.40;99.90;;;;;;5048223;28;20024;-68
2021/10/29 00:21:20;;;;;;;49.30;9.43;;;5.40;99.90;;;;;;5048203;28;20043;-68
2021/10/29 00:23:46;;;;;;;25.33;8.57;;;5.40;99.90;;;;;;5048460;28;20033;-68
2021/10/29 00:26:12;;;;;;;97.80;12.27;;;5.30;99.90;;;;;;5047826;28;20032;-69
2021/10/29 00:28:37;;;;;;;19.80;7.68;;;5.30;99.90;;;;;;5047346;28;20485;-68
2021/10/29 00:31:03;;;;;;;21.05;7.70;;;5.30;99.90;;;;;;5046472;28;20037;-68
2021/10/29 00:33:29;;;;;;;24.58;8.05;;;5.30;99.90;;;;;;5050445;28;20552;-68
2021/10/29 00:35:54;;;;;;;49.22;11.48;;;5.40;99.90;;;;;;5053131;28;20068;-68
2021/10/29 00:38:20;;;;;;;11.80;8.23;;;5.40;99.90;;;;;;5057690;28;20410;-68
2021/10/29 00:40:46;;;;;;;30.75;8.45;;;5.30;99.90;;;;;;5057557;28;20416;-68
2021/10/29 00:43:12;;;;;;;44.92;8.00;;;5.30;99.90;;;;;;5045732;28;20082;-68
2021/10/29 00:45:38;;;;;;;23.02;7.82;;;5.20;99.90;;;;;;5046689;28;20048;-68
2021/10/29 00:48:06;;;;;;;28.25;8.65;;;5.20;99.90;;;;;;5046633;28;20032;-68
2021/10/29 00:50:31;;;;;;;13.32;6.88;;;5.30;99.90;;;;;;5047325;28;20499;-68
2021/10/29 00:52:57;;;;;;;19.92;7.55;;;5.30;99.90;;;;;;5048274;28;20037;-69
2021/10/29 00:55:23;;;;;;;28.92;8.50;;;5.30;99.90;;;;;;5064809;28;20036;-68
2021/10/29 00:57:51;;;;;;;55.47;10.10;;;5.40;99.90;;;;;;5043815;28;20035;-69
2021/10/29 01:00:17;;;;;;;15.10;7.88;;;5.30;99.90;;;;;;5042886;28;20021;-68
2021/10/29 01:02:43;;;;;;;52.00;9.07;;;5.30;99.90;;;;;;5059770;28;20119;-67
2021/10/29 01:05:09;;;;;;;39.05;11.27;;;5.40;99.90;;;;;;5043445;28;20118;-67
2021/10/29 01:07:35;;;;;;;62.85;9.32;;;5.30;99.90;;;;;;5044642;28;20374;-67
2021/10/29 01:10:02;;;;;;;52.33;8.80;;;5.30;99.90;;;;;;5047215;28;20061;-67
2021/10/29 01:12:28;;;;;;;13.73;7.60;;;5.30;99.90;;;;;;5043378;28;20151;-67
2021/10/29 01:14:55;;;;;;;56.78;8.73;;;5.30;99.90;;;;;;5044989;28;20050;-67
2021/10/29 01:17:22;;;;;;;40.40;9.20;;;5.20;99.90;;;;;;5043727;28;20044;-67
2021/10/29 01:19:51;;;;;;;28.77;7.47;;;5.20;99.90;;;;;;5045472;28;20036;-67
2021/10/29 01:22:17;;;;;;;28.10;7.45;;;5.10;99.90;;;;;;5046222;28;20025;-67
2021/10/29 01:24:43;;;;;;;40.83;8.15;;;5.10;99.90;;;;;;5048191;28;20435;-68
2021/10/29 01:27:10;;;;;;;62.67;8.30;;;5.10;99.90;;;;;;5045088;28;20052;-67
2021/10/29 01:29:36;;;;;;;38.73;7.77;;;5.10;99.90;;;;;;5046828;28;20029;-67
2021/10/29 01:32:03;;;;;;;66.95;9.13;;;5.10;99.90;;;;;;5044932;28;20048;-67
2021/10/29 01:34:29;;;;;;;29.60;7.68;;;5.00;99.90;;;;;;5040486;28;22083;-67
2021/10/29 01:36:55;;;;;;;14.30;7.70;;;5.00;99.90;;;;;;5046463;28;20029;-67
2021/10/29 01:39:20;;;;;;;22.48;7.15;;;5.00;99.90;;;;;;5059630;28;20024;-68
2021/10/29 01:41:46;;;;;;;24.40;7.57;;;5.00;99.90;;;;;;5047116;28;20017;-67
2021/10/29 01:44:15;;;;;;;13.63;6.97;;;5.00;99.90;;;;;;5044518;28;20024;-67
2021/10/29 01:46:40;;;;;;;;;;;5.00;99.90;;;;;;5044640;28;21767;-67
2021/10/29 01:49:07;;;;;;;12.02;7.15;;;5.00;99.90;;;;;;5044115;28;19923;-67
2021/10/29 01:51:32;;;;;;;17.38;6.78;;;5.00;99.90;;;;;;5044832;28;21801;-68
2021/10/29 01:53:58;;;;;;;51.15;9.23;;;5.10;99.90;;;;;;5043015;28;20119;-67
2021/10/29 01:56:25;;;;;;;36.50;10.43;;;5.10;99.90;;;;;;5045081;28;20025;-67
2021/10/29 01:58:51;;;;;;;14.82;6.90;;;5.10;99.90;;;;;;5044215;28;20650;-68
2021/10/29 02:01:17;;;;;;;26.75;7.32;;;5.00;99.90;;;;;;5051742;28;20036;-67
2021/10/29 02:03:43;;;;;;;43.70;9.38;;;5.00;99.90;;;;;;5047888;28;20020;-68
2021/10/29 02:06:09;;;;;;;23.40;7.82;;;5.00;99.90;;;;;;5042671;28;20032;-68
2021/10/29 02:08:34;;;;;;;14.55;7.45;;;5.00;99.90;;;;;;5041711;28;20481;-67
2021/10/29 02:11:00;;;;;;;19.88;6.90;;;5.10;99.90;;;;;;5049824;28;20090;-67
2021/10/29 02:13:26;;;;;;;24.15;7.93;;;5.10;99.90;;;;;;5046305;28;20039;-68
2021/10/29 02:15:52;;;;;;;13.93;7.38;;;5.10;99.90;;;;;;5047235;28;20420;-67
2021/10/29 02:18:18;;;;;;;53.25;10.23;;;5.20;99.90;;;;;;5050471;28;20036;-67
2021/10/29 02:20:44;;;;;;;18.23;6.20;;;5.20;99.90;;;;;;5045928;28;20397;-67
2021/10/29 02:23:10;;;;;;;56.05;8.55;;;5.20;99.90;;;;;;5046923;28;20058;-67
2021/10/29 02:25:39;;;;;;;11.70;6.78;;;5.20;99.90;;;;;;5035621;28;20055;-67
2021/10/29 02:28:05;;;;;;;12.55;6.78;;;5.20;99.90;;;;;;5045760;28;20143;-68
2021/10/29 02:30:31;;;;;;;27.45;7.88;;;5.20;99.90;;;;;;5045063;28;20032;-67
2021/10/29 02:32:57;;;;;;;71.47;11.10;;;5.10;99.90;;;;;;5046985;28;20039;-67
2021/10/29 02:35:22;;;;;;;18.90;8.80;;;5.10;99.90;;;;;;5043937;28;20037;-67
2021/10/29 02:37:48;;;;;;;23.27;6.85;;;5.00;99.90;;;;;;5033001;28;20375;-68
2021/10/29 02:40:14;;;;;;;38.40;7.32;;;5.00;99.90;;;;;;5044339;28;20025;-68
2021/10/29 02:42:40;;;;;;;18.42;7.93;;;5.00;99.90;;;;;;5042591;28;20461;-68
2021/10/29 02:45:06;;;;;;;20.98;9.32;;;5.10;99.90;;;;;;5048710;28;20040;-68
2021/10/29 02:47:32;;;;;;;13.13;6.28;;;5.10;99.90;;;;;;5043845;28;20118;-67
2021/10/29 02:49:57;;;;;;;41.15;8.90;;;5.10;99.90;;;;;;5044735;28;20032;-67
2021/10/29 02:52:23;;;;;;;25.52;7.85;;;5.10;99.90;;;;;;5045231;28;20042;-68
2021/10/29 02:54:49;;;;;;;40.08;9.68;;;5.00;99.90;;;;;;5041331;28;20037;-68
2021/10/29 02:57:15;;;;;;;94.35;12.50;;;5.10;99.90;;;;;;5044616;28;20089;-67
2021/10/29 02:59:40;;;;;;;150.98;14.10;;;5.00;99.90;;;;;;5043738;28;20036;-67
2021/10/29 03:02:06;;;;;;;53.10;14.70;;;5.00;99.90;;;;;;5039768;28;20051;-67
2021/10/29 03:04:32;;;;;;;45.88;8.27;;;5.00;99.90;;;;;;5042415;28;20028;-67
2021/10/29 03:06:58;;;;;;;22.80;7.53;;;4.90;99.90;;;;;;5043220;28;20066;-67
2021/10/29 03:09:23;;;;;;;40.63;8.18;;;4.90;99.90;;;;;;5038722;28;20070;-68
2021/10/29 03:11:49;;;;;;;29.85;8.85;;;4.90;99.90;;;;;;5040990;28;20036;-67
2021/10/29 03:14:15;;;;;;;22.13;7.93;;;5.00;99.90;;;;;;5041435;28;21006;-67
2021/10/29 03:16:40;;;;;;;74.10;10.88;;;4.90;99.90;;;;;;5043574;28;20490;-68
2021/10/29 03:19:06;;;;;;;55.25;10.30;;;4.80;99.90;;;;;;5043715;28;20039;-67
2021/10/29 03:21:32;;;;;;;45.33;7.97;;;4.80;99.90;;;;;;5044808;28;20575;-67
2021/10/29 03:23:57;;;;;;;74.35;12.55;;;4.90;99.90;;;;;;5044400;28;20530;-67
2021/10/29 03:26:23;;;;;;;66.95;12.38;;;4.90;99.90;;;;;;5042793;28;20091;-67
2021/10/29 03:28:49;;;;;;;56.28;10.27;;;4.90;99.90;;;;;;5043120;28;21152;-67
2021/10/29 03:31:15;;;;;;;49.60;8.98;;;4.80;99.90;;;;;;5038532;28;20067;-68
2021/10/29 03:33:41;;;;;;;27.15;8.00;;;4.90;99.90;;;;;;5045125;28;20078;-68
2021/10/29 03:36:07;;;;;;;51.63;7.80;;;4.90;99.90;;;;;;5044052;28;20025;-68
2021/10/29 03:38:51;;;;;;;42.58;10.05;;;4.90;99.90;;;;;;5052360;28;20025;-68
2021/10/29 03:41:19;;;;;;;89.15;10.65;;;4.90;99.90;;;;;;5045224;28;20412;-67
2021/10/29 03:46:47;;;;;;;70.03;11.10;;;4.90;99.90;;;;;;4975331;28;20042;-70
2021/10/29 03:49:32;;;;;;;18.42;9.20;;;4.90;99.90;;;;;;5034499;28;20120;-68
2021/10/29 03:52:49;;;;;;;94.47;12.52;;;4.90;99.90;;;;;;5043292;28;20036;-67
2021/10/29 03:54:51;;;;;;;15.40;6.85;;;4.90;99.90;;;;;;5037100;28;20040;-67
2021/10/29 03:57:27;;;;;;;28.17;8.35;;;4.80;99.90;;;;;;5036384;28;20402;-67
2021/10/29 03:59:54;;;;;;;38.30;7.53;;;4.90;99.90;;;;;;5039805;28;20027;-68
2021/10/29 04:02:21;;;;;;;25.50;7.45;;;4.80;99.90;;;;;;5037646;28;20679;-67
2021/10/29 04:04:47;;;;;;;42.67;8.32;;;4.90;99.90;;;;;;5038818;28;20031;-68
2021/10/29 04:07:13;;;;;;;29.20;8.45;;;4.80;99.90;;;;;;5039530;28;20032;-68
2021/10/29 04:09:39;;;;;;;45.80;9.07;;;4.80;99.90;;;;;;5040819;28;20040;-68
2021/10/29 04:12:05;;;;;;;14.50;7.82;;;4.80;99.90;;;;;;5039113;28;20473;-68
2021/10/29 04:14:31;;;;;;;35.92;7.63;;;4.80;99.90;;;;;;5040274;28;20040;-67
2021/10/29 04:16:57;;;;;;;59.42;9.90;;;4.90;99.90;;;;;;5040400;28;20036;-67
2021/10/29 04:19:23;;;;;;;39.22;8.90;;;4.90;99.90;;;;;;5039113;28;20039;-67
2021/10/29 04:21:49;;;;;;;71.53;12.23;;;4.90;99.90;;;;;;5039126;28;20474;-68
2021/10/29 04:24:15;;;;;;;21.85;8.30;;;4.90;99.90;;;;;;5037748;28;20125;-67
2021/10/29 04:26:41;;;;;;;30.60;7.72;;;4.90;99.90;;;;;;5038868;28;20041;-67
2021/10/29 04:29:15;;;;;;;15.18;7.20;;;4.90;99.90;;;;;;5038820;28;20517;-67
2021/10/29 04:31:49;;;;;;;29.13;7.63;;;4.90;99.90;;;;;;5037897;28;20122;-67
2021/10/29 04:34:24;;;;;;;18.25;7.40;;;4.90;99.90;;;;;;5040027;28;20040;-68
2021/10/29 04:36:52;;;;;;;24.33;7.95;;;5.00;99.90;;;;;;5038214;28;20068;-67
2021/10/29 04:39:18;;;;;;;14.53;7.40;;;5.00;99.90;;;;;;5039756;28;20175;-68
2021/10/29 04:41:49;;;;;;;16.52;6.80;;;5.00;99.90;;;;;;5038845;28;20028;-67
2021/10/29 04:44:15;;;;;;;35.40;7.93;;;5.00;99.90;;;;;;5036934;28;20484;-67
2021/10/29 04:46:40;;;;;;;32.13;8.82;;;5.00;99.90;;;;;;5039527;28;20036;-67
2021/10/29 04:49:06;;;;;;;46.33;7.85;;;5.00;99.90;;;;;;5038520;28;20028;-68
2021/10/29 04:51:33;;;;;;;19.90;8.10;;;5.00;99.90;;;;;;5039870;28;20032;-68
2021/10/29 04:53:59;;;;;;;21.95;7.20;;;5.00;99.90;;;;;;5038859;28;20182;-68
2021/10/29 04:56:25;;;;;;;31.73;8.48;;;4.90;99.90;;;;;;5029181;28;20029;-68
2021/10/29 04:58:51;;;;;;;20.00;7.43;;;4.90;99.90;;;;;;5028688;28;20028;-68
2021/10/29 05:01:17;;;;;;;16.88;7.93;;;4.90;99.90;;;;;;5036874;28;20048;-68
2021/10/29 05:03:44;;;;;;;15.63;6.97;;;4.90;99.90;;;;;;5038800;28;20028;-67
2021/10/29 05:06:10;;;;;;;20.88;9.18;;;4.90;99.90;;;;;;5039959;28;20091;-67
2021/10/29 05:08:37;;;;;;;20.65;8.43;;;4.90;99.90;;;;;;5039203;28;20153;-66
2021/10/29 05:11:03;;;;;;;19.95;7.63;;;4.90;99.90;;;;;;5041921;28;20108;-66
2021/10/29 05:13:29;;;;;;;54.58;9.25;;;5.00;99.90;;;;;;5038157;28;20036;-67
2021/10/29 05:15:54;;;;;;;30.70;8.38;;;5.00;99.90;;;;;;5040072;28;20689;-68
2021/10/29 05:18:21;;;;;;;33.75;7.53;;;5.00;99.90;;;;;;5038080;28;20107;-67
2021/10/29 05:20:47;;;;;;;30.77;7.65;;;5.00;99.90;;;;;;5043704;28;20047;-68
2021/10/29 05:23:13;;;;;;;19.83;6.78;;;5.00;99.90;;;;;;5048371;28;20025;-68
2021/10/29 05:25:38;;;;;;;43.83;9.68;;;5.00;99.90;;;;;;5037551;28;20035;-67
2021/10/29 05:28:04;;;;;;;17.52;7.53;;;5.00;99.90;;;;;;5037701;28;20048;-69
2021/10/29 05:30:30;;;;;;;12.55;7.13;;;5.00;99.90;;;;;;5047196;28;20033;-68
2021/10/29 05:32:56;;;;;;;9.18;6.57;;;5.00;99.90;;;;;;5042877;28;20480;-68
2021/10/29 05:35:22;;;;;;;12.07;7.65;;;5.00;99.90;;;;;;5046769;28;20061;-67
2021/10/29 05:37:47;;;;;;;12.43;7.45;;;5.00;99.90;;;;;;5043047;28;20028;-67
2021/10/29 05:40:14;;;;;;;25.88;8.60;;;5.10;99.90;;;;;;5049681;28;20029;-67
2021/10/29 05:42:39;;;;;;;40.10;8.27;;;5.00;99.90;;;;;;5048497;28;20025;-68
2021/10/29 05:45:07;;;;;;;21.33;7.80;;;5.00;99.90;;;;;;5046130;28;20051;-68
2021/10/29 05:47:34;;;;;;;85.30;11.07;;;5.00;99.90;;;;;;5041495;28;20071;-68
2021/10/29 05:50:00;;;;;;;16.73;6.63;;;5.00;99.90;;;;;;5048481;28;20029;-68
2021/10/29 05:52:29;;;;;;;17.50;7.25;;;5.00;99.90;;;;;;5051311;28;20901;-68
2021/10/29 05:57:41;;;;;;;22.08;7.38;;;4.90;99.90;;;;;;5057802;28;20015;-68
2021/10/29 06:00:07;;;;;;;25.92;7.20;;;4.80;99.90;;;;;;5052064;28;20114;-68
2021/10/29 06:02:33;;;;;;;13.13;7.28;;;4.80;99.90;;;;;;5049981;28;20039;-68
2021/10/29 06:04:59;;;;;;;26.42;7.80;;;4.80;99.90;;;;;;5052350;28;20032;-67
2021/10/29 06:07:25;;;;;;;29.23;7.75;;;4.80;99.90;;;;;;5053676;28;20055;-68
2021/10/29 06:09:50;;;;;;;16.85;7.72;;;4.80;99.90;;;;;;5051046;28;20036;-68
2021/10/29 06:12:16;;;;;;;27.88;7.35;;;4.80;99.90;;;;;;5048215;28;20037;-68
2021/10/29 06:14:41;;;;;;;40.83;9.30;;;4.80;99.90;;;;;;5049220;28;20695;-67
2021/10/29 06:17:12;;;;;;;32.33;8.45;;;4.80;99.90;;;;;;5051467;28;20970;-68
2021/10/29 06:19:37;;;;;;;66.50;9.90;;;4.80;99.90;;;;;;5062322;28;20028;-67
2021/10/29 06:24:32;;;;;;;16.63;8.10;;;4.70;99.90;;;;;;5058325;28;20095;-68
2021/10/29 06:29:42;;;;;;;20.73;9.23;;;4.70;99.90;;;;;;5050535;28;20052;-67
2021/10/29 06:32:08;;;;;;;20.25;8.88;;;4.70;99.90;;;;;;5054985;28;20057;-67
2021/10/29 06:34:34;;;;;;;17.75;9.70;;;4.70;99.90;;;;;;5053286;28;20055;-67
2021/10/29 06:37:06;;;;;;;47.15;8.50;;;4.60;99.90;;;;;;5053106;28;20032;-67
2021/10/29 06:39:32;;;;;;;14.10;8.20;;;4.60;99.90;;;;;;5049657;28;20013;-67
2021/10/29 06:41:59;;;;;;;23.95;8.70;;;4.60;99.90;;;;;;5051644;28;20588;-67
2021/10/29 06:44:36;;;;;;;17.70;8.25;;;4.60;99.90;;;;;;5053107;28;20427;-67
2021/10/29 07:41:03;;;;;;;14.73;7.75;;;4.90;99.90;;;;;;5049940;28;20401;-68
2021/10/29 07:43:35;;;;;;;16.10;7.32;;;4.90;99.90;;;;;;5058528;28;20017;-68
2021/10/29 07:46:02;;;;;;;11.48;7.00;;;4.90;99.90;;;;;;5069247;28;20031;-68
2021/10/29 07:48:30;;;;;;;32.78;8.20;;;4.90;99.90;;;;;;5066559;28;20165;-68
2021/10/29 07:50:56;;;;;;;20.05;7.22;;;4.90;99.90;;;;;;5066893;28;20439;-67
2021/10/29 07:53:22;;;;;;;23.63;8.55;;;4.90;99.90;;;;;;5066269;28;20445;-68
2021/10/29 07:55:48;;;;;;;19.20;7.53;;;4.90;99.90;;;;;;5057737;28;20039;-68
2021/10/29 07:58:14;;;;;;;15.80;7.85;;;5.00;99.90;;;;;;5064683;28;20063;-68
2021/10/29 08:00:39;;;;;;;40.65;9.32;;;5.00;99.90;;;;;;5066760;28;20692;-68
2021/10/29 08:03:07;;;;;;;15.50;7.90;;;5.00;99.90;;;;;;5066078;28;20063;-67
2021/10/29 08:05:34;;;;;;;14.98;7.40;;;5.00;99.90;;;;;;5060554;28;20039;-68
2021/10/29 08:08:00;;;;;;;12.43;7.20;;;5.10;99.90;;;;;;5065982;28;20021;-68
2021/10/29 08:10:26;;;;;;;11.18;6.50;;;5.10;99.90;;;;;;5068278;28;20103;-67
2021/10/29 08:12:53;;;;;;;11.93;7.28;;;5.10;99.90;;;;;;5064568;28;20023;-68
2021/10/29 08:15:18;;;;;;;12.02;7.28;;;5.10;99.90;;;;;;5064336;28;20162;-68
2021/10/29 08:17:44;;;;;;;11.50;6.90;;;5.10;99.90;;;;;;5064112;28;20115;-67
2021/10/29 08:20:12;;;;;;;14.57;7.47;;;5.10;99.90;;;;;;5066555;28;20476;-68
2021/10/29 08:22:38;;;;;;;14.60;8.20;;;5.10;99.90;;;;;;5064259;28;20033;-68
2021/10/29 08:25:06;;;;;;;17.50;8.20;;;5.10;99.90;;;;;;5063995;28;20032;-68
2021/10/29 08:27:32;;;;;;;27.70;8.10;;;5.00;99.90;;;;;;5061013;28;20052;-68
2021/10/29 08:29:58;;;;;;;13.02;7.63;;;5.00;99.90;;;;;;5054942;28;20112;-68
2021/10/29 08:32:25;;;;;;;19.45;7.47;;;5.00;99.90;;;;;;5061393;28;20116;-68
2021/10/29 08:34:51;;;;;;;12.25;7.55;;;4.90;99.90;;;;;;5068401;28;20040;-68
2021/10/29 08:37:16;;;;;;;13.07;7.55;;;4.90;99.90;;;;;;5065412;28;20033;-68
2021/10/29 08:39:42;;;;;;;12.40;7.35;;;5.00;99.90;;;;;;5061049;28;20116;-68
2021/10/29 08:42:09;;;;;;;13.50;6.95;;;5.00;99.90;;;;;;5073087;28;20020;-68
2021/10/29 08:44:35;;;;;;;13.05;7.07;;;5.00;99.90;;;;;;5069715;28;20023;-68
2021/10/29 08:47:03;;;;;;;19.00;7.60;;;5.10;99.90;;;;;;5069194;28;20058;-68
2021/10/29 08:49:30;;;;;;;13.03;7.30;;;5.00;99.90;;;;;;5068991;28;20024;-67
2021/10/29 08:51:56;;;;;;;13.63;6.75;;;5.00;99.90;;;;;;5071056;28;20116;-67
2021/10/29 08:54:23;;;;;;;9.13;6.38;;;5.10;99.90;;;;;;5069296;28;20028;-67
2021/10/29 08:56:50;;;;;;;10.35;6.00;;;5.00;99.90;;;;;;5068049;28;20115;-67
2021/10/29 08:59:21;;;;;;;9.90;6.25;;;5.10;99.90;;;;;;5067432;28;20529;-67
2021/10/29 09:02:13;;;;;;;11.35;6.65;;;5.10;99.90;;;;;;5058219;28;20063;-68
2021/10/29 09:04:53;;;;;;;12.05;6.55;;;5.10;99.90;;;;;;5058707;28;20020;-68
2021/10/29 09:10:37;;;;;;;11.93;7.63;;;5.10;99.90;;;;;;5070409;28;20493;-67
2021/10/29 09:32:27;;;;;;;10.18;6.40;;;5.20;99.90;;;;;;5069667;28;20057;-67
2021/10/29 09:35:14;;;;;;;10.63;7.22;;;5.20;99.90;;;;;;5067754;28;20036;-67
2021/10/29 09:38:04;;;;;;;7.97;5.97;;;5.20;99.90;;;;;;5068180;28;20033;-67
2021/10/29 09:40:56;;;;;;;10.45;6.60;;;5.20;99.90;;;;;;5058961;28;20024;-67
2021/10/29 09:43:24;;;;;;;10.40;6.60;;;5.30;99.90;;;;;;5055972;28;20083;-67
2021/10/29 09:45:50;;;;;;;10.30;6.00;;;5.20;99.90;;;;;;5061113;28;20477;-67
2021/10/29 09:48:21;;;;;;;11.65;7.20;;;5.30;99.90;;;;;;5065777;28;20028;-67
2021/10/29 09:50:58;;;;;;;9.52;6.38;;;5.30;99.90;;;;;;5055255;28;20948;-67
2021/10/29 09:53:45;;;;;;;10.52;6.97;;;5.20;99.90;;;;;;5056479;28;20821;-68
2021/10/29 09:58:49;;;;;;;8.68;6.32;;;5.30;99.90;;;;;;5054645;28;20137;-67
2021/10/29 10:01:16;;;;;;;10.95;6.70;;;5.30;99.90;;;;;;5056502;28;20040;-68
2021/10/29 10:03:42;;;;;;;10.27;6.43;;;5.30;99.90;;;;;;5066015;28;20137;-67
2021/10/29 10:06:13;;;;;;;13.05;7.57;;;5.30;99.90;;;;;;5051373;28;20039;-67
2021/10/29 10:08:39;;;;;;;11.30;6.60;;;5.40;99.90;;;;;;5047712;28;20050;-68
2021/10/29 10:11:06;;;;;;;10.27;7.18;;;5.40;99.90;;;;;;5060261;28;20028;-67
2021/10/29 10:13:33;;;;;;;10.90;6.60;;;5.40;99.90;;;;;;5054944;28;20032;-67
2021/10/29 10:16:01;;;;;;;12.18;8.10;;;5.40;99.90;;;;;;5059836;28;20032;-67
2021/10/29 10:18:27;;;;;;;10.93;7.07;;;5.40;99.90;;;;;;5079226;28;20044;-67
2021/10/29 10:20:59;;;;;;;11.98;7.03;;;5.50;99.90;;;;;;5069441;28;20035;-67
2021/10/29 10:23:35;;;;;;;10.85;6.72;;;5.40;99.90;;;;;;5061410;28;20033;-67
2021/10/29 10:26:17;;;;;;;10.73;7.25;;;5.40;99.90;;;;;;5064358;28;20034;-67
2021/10/29 10:51:49;;;;;;;13.40;7.53;;;5.60;99.90;;;;;;5063875;28;20769;-68
2021/10/29 10:54:22;;;;;;;9.68;7.60;;;5.70;99.90;;;;;;5052954;28;20041;-68
2021/10/29 11:10:16;;;;;;;11.02;8.07;;;5.80;99.90;;;;;;5069341;28;20048;-67
2021/10/29 11:12:41;;;;;;;11.80;7.65;;;5.80;99.90;;;;;;5061617;28;20037;-67
2021/10/29 11:15:13;;;;;;;13.05;7.78;;;5.70;99.90;;;;;;5066990;28;20037;-67
2021/10/29 11:17:53;;;;;;;12.73;7.68;;;5.70;99.90;;;;;;5061269;28;20045;-67
2021/10/29 11:23:34;;;;;;;11.90;7.43;;;5.60;99.90;;;;;;5047143;28;20021;-67
2021/10/29 11:26:21;;;;;;;12.10;6.77;;;5.60;99.90;;;;;;5066620;28;20081;-67
2021/10/29 11:28:50;;;;;;;12.90;7.75;;;5.70;99.90;;;;;;5068202;28;20051;-67
2021/10/29 11:31:18;;;;;;;9.80;7.28;;;5.70;99.90;;;;;;5066682;28;20028;-67
2021/10/29 11:33:47;;;;;;;10.85;7.68;;;5.60;99.90;;;;;;5065696;28;20036;-67
2021/10/29 11:36:15;;;;;;;13.70;8.10;;;5.70;99.90;;;;;;5069803;28;20611;-67
2021/10/29 11:38:42;;;;;;;;;;;5.80;99.90;;;;;;5067703;28;20056;-67
2021/10/29 11:41:11;;;;;;;11.77;7.03;;;5.80;99.90;;;;;;5067367;28;19912;-67
2021/10/29 11:43:39;;;;;;;10.07;7.35;;;5.90;99.90;;;;;;5065320;28;20856;-67
2021/10/29 11:46:07;;;;;;;11.70;7.15;;;5.90;99.90;;;;;;5057598;28;20077;-67
2021/10/29 11:48:54;;;;;;;11.75;7.18;;;5.90;99.90;;;;;;5059888;28;20997;-68
2021/10/29 11:51:23;;;;;;;12.23;7.78;;;5.90;99.90;;;;;;5063065;28;20298;-67
2021/10/29 11:53:55;;;;;;;;;;;5.90;99.90;;;;;;5065130;28;20513;-67
2021/10/29 11:59:12;;;;;;;12.82;7.93;;;5.90;99.90;;;;;;5066576;28;20060;-67
2021/10/29 12:07:14;;;;;;;13.45;7.72;;;6.00;99.90;;;;;;5056776;28;20089;-67
2021/10/29 12:09:42;;;;;;;11.35;7.57;;;6.00;99.90;;;;;;5059206;28;20542;-67
2021/10/29 12:12:11;;;;;;;13.02;7.20;;;6.00;99.90;;;;;;5072218;28;20481;-67
2021/10/29 12:14:39;;;;;;;11.30;7.85;;;6.00;99.90;;;;;;5066570;28;20534;-67
2021/10/29 12:17:21;;;;;;;10.67;8.03;;;6.00;99.90;;;;;;5067297;28;20444;-67
2021/10/29 12:19:51;;;;;;;12.02;7.75;;;6.00;99.90;;;;;;5060315;28;22178;-67
2021/10/29 12:28:01;;;;;;;11.52;7.68;;;6.10;99.90;;;;;;5070148;28;20079;-67
2021/10/29 12:30:32;;;;;;;9.43;7.40;;;6.10;99.90;;;;;;5069050;28;20035;-67
2021/10/29 13:03:37;;;;;;;12.50;7.88;;;6.30;99.90;;;;;;5065127;28;20115;-67
2021/10/29 13:06:06;;;;;;;13.70;7.95;;;6.20;99.90;;;;;;5065674;28;20063;-68
2021/10/29 13:08:34;;;;;;;;;;;6.20;99.90;;;;;;5060636;28;20029;-67
2021/10/29 13:11:00;;;;;;;;;;;6.30;99.90;;;;;;5061086;28;19956;-67
2021/10/29 13:15:57;;;;;;;11.18;7.93;;;6.30;99.90;;;;;;5060938;28;20040;-67
2021/10/29 13:18:26;;;;;;;12.10;8.40;;;6.30;99.90;;;;;;5068845;28;20027;-67
2021/10/29 13:21:23;;;;;;;11.55;8.27;;;6.30;99.90;;;;;;5063977;28;20100;-68
2021/10/29 13:58:33;;;;;;;14.38;9.13;;;6.20;99.90;;;;;;5069453;28;20060;-68
2021/10/29 14:17:08;;;;;;;14.85;8.80;;;6.30;99.90;;;;;;5058709;28;20775;-67
2021/10/29 14:35:09;;;;;;;11.88;8.52;;;6.20;99.90;;;;;;5063944;28;20036;-67
2021/10/29 14:37:53;;;;;;;13.57;9.40;;;6.30;99.90;;;;;;5067710;28;20036;-67
2021/10/29 14:40:27;;;;;;;13.13;8.70;;;6.30;99.90;;;;;;5069966;28;20024;-67
2021/10/29 14:43:00;;;;;;;15.13;8.90;;;6.20;99.90;;;;;;5066464;28;20431;-67
2021/10/29 14:53:22;;;;;;;12.43;8.25;;;6.20;99.90;;;;;;5069696;28;20028;-67
2021/10/29 15:17:30;;;;;;;16.30;9.70;;;6.00;99.90;;;;;;5063460;28;20035;-67
2021/10/29 15:41:33;;;;;;;14.13;9.23;;;6.00;99.90;;;;;;5069048;28;20516;-67
2021/10/29 15:51:38;;;;;;;16.73;9.90;;;6.00;99.90;;;;;;5066404;28;20400;-67
2021/10/29 15:54:10;;;;;;;17.83;9.73;;;6.00;99.90;;;;;;5069701;28;20021;-67
2021/10/29 16:18:00;;;;;;;19.40;12.18;;;6.00;99.90;;;;;;5058365;28;20059;-67
2021/10/29 16:20:25;;;;;;;18.75;10.77;;;6.00;99.90;;;;;;5058798;28;20029;-68
2021/10/29 16:22:53;;;;;;;17.52;10.68;;;5.90;99.90;;;;;;5056973;28;20041;-67
2021/10/29 16:25:22;;;;;;;19.90;11.68;;;6.00;99.90;;;;;;5056962;28;20501;-68
2021/10/29 16:27:58;;;;;;;18.15;11.15;;;6.00;99.90;;;;;;5056587;28;20621;-67
2021/10/29 16:30:26;;;;;;;19.15;10.65;;;6.00;99.90;;;;;;5055617;28;20032;-67
2021/10/29 16:35:29;;;;;;;20.33;12.07;;;6.00;99.90;;;;;;5054825;28;20055;-67
2021/10/29 16:37:54;;;;;;;21.58;13.20;;;6.00;99.90;;;;;;5059438;28;20032;-67
2021/10/29 16:40:21;;;;;;;23.75;11.90;;;5.90;99.90;;;;;;5057959;28;20770;-67
2021/10/29 16:42:47;;;;;;;17.77;11.10;;;5.90;99.90;;;;;;5054270;28;20039;-67
2021/10/29 16:45:16;;;;;;;21.38;11.75;;;5.90;99.90;;;;;;5053746;28;20063;-67
2021/10/29 16:47:42;;;;;;;45.47;13.40;;;5.90;99.90;;;;;;5056018;28;20029;-67
2021/10/29 16:50:09;;;;;;;21.90;11.55;;;5.80;99.90;;;;;;5056450;28;20036;-67
2021/10/29 16:52:35;;;;;;;30.80;12.15;;;5.80;99.90;;;;;;5060236;28;20119;-67
2021/10/29 16:55:01;;;;;;;23.17;11.52;;;5.80;99.90;;;;;;5059173;28;20633;-67
2021/10/29 16:57:26;;;;;;;21.17;11.90;;;5.90;99.90;;;;;;5058482;28;20462;-67
2021/10/29 16:59:52;;;;;;;28.65;13.07;;;5.90;99.90;;;;;;5055073;28;20033;-67
2021/10/29 17:02:17;;;;;;;23.15;11.98;;;5.90;99.90;;;;;;5059884;28;20944;-67
2021/10/29 17:04:43;;;;;;;33.45;12.50;;;5.90;99.90;;;;;;5058282;28;20509;-67
2021/10/29 17:07:09;;;;;;;48.45;13.73;;;5.80;99.90;;;;;;5059201;28;20043;-67
2021/10/29 17:09:35;;;;;;;61.30;13.40;;;5.70;99.90;;;;;;5056713;28;20031;-67
2021/10/29 17:12:01;;;;;;;29.52;12.05;;;5.70;99.90;;;;;;5061642;28;20405;-67
2021/10/29 17:14:28;;;;;;;23.65;12.02;;;5.70;99.90;;;;;;5058748;28;20555;-67
2021/10/29 17:16:54;;;;;;;35.53;12.55;;;5.70;99.90;;;;;;5061357;28;20025;-67
2021/10/29 17:19:21;;;;;;;56.13;12.55;;;5.70;99.90;;;;;;5058062;28;20024;-67
2021/10/29 17:21:47;;;;;;;24.67;11.88;;;5.70;99.90;;;;;;5060647;28;20111;-67
2021/10/29 17:24:13;;;;;;;58.28;15.30;;;5.70;99.90;;;;;;5058360;28;20028;-67
2021/10/29 17:26:39;;;;;;;81.60;15.18;;;5.70;99.90;;;;;;5057695;28;20040;-67
2021/10/29 17:29:04;;;;;;;40.90;12.73;;;5.70;99.90;;;;;;5061233;28;20103;-67
2021/10/29 17:31:30;;;;;;;26.55;13.10;;;5.70;99.90;;;;;;5054959;28;20044;-67
2021/10/29 17:33:56;;;;;;;31.83;12.98;;;5.80;99.90;;;;;;5056622;28;20485;-67
2021/10/29 17:36:21;;;;;;;63.03;15.13;;;5.80;99.90;;;;;;5055186;28;20037;-67
2021/10/29 17:38:47;;;;;;;22.80;11.40;;;5.70;99.90;;;;;;5058522;28;20035;-67
2021/10/29 17:41:13;;;;;;;55.08;12.82;;;5.80;99.90;;;;;;5051486;28;20055;-67
2021/10/29 17:43:39;;;;;;;53.13;14.00;;;5.70;99.90;;;;;;5058243;28;20513;-67
2021/10/29 17:46:05;;;;;;;40.05;13.27;;;5.80;99.90;;;;;;5051193;28;20031;-67
2021/10/29 17:48:31;;;;;;;36.58;12.40;;;5.70;99.90;;;;;;5055736;28;20038;-67
2021/10/29 17:50:58;;;;;;;32.53;12.05;;;5.70;99.90;;;;;;5059337;28;20482;-67
2021/10/29 17:53:24;;;;;;;64.85;14.32;;;5.70;99.90;;;;;;5059233;28;20035;-67
2021/10/29 17:55:50;;;;;;;34.28;12.65;;;5.70;99.90;;;;;;5056311;28;20400;-67
2021/10/29 17:58:16;;;;;;;30.05;13.07;;;5.70;99.90;;;;;;5054866;28;20046;-67
2021/10/29 18:00:45;;;;;;;20.70;11.68;;;5.80;99.90;;;;;;5059013;28;20043;-67
2021/10/29 18:03:11;;;;;;;50.83;15.30;;;5.80;99.90;;;;;;5059509;28;20124;-67
2021/10/29 18:05:37;;;;;;;71.38;15.65;;;5.80;99.90;;;;;;5056959;28;20531;-67
2021/10/29 18:08:05;;;;;;;50.80;14.80;;;5.70;99.90;;;;;;5052591;28;20516;-66
2021/10/29 18:10:33;;;;;;;28.55;14.35;;;5.80;99.90;;;;;;5057325;28;20473;-67
2021/10/29 18:12:59;;;;;;;27.83;12.70;;;5.70;99.90;;;;;;5053799;28;20040;-67
2021/10/29 18:15:25;;;;;;;31.55;14.25;;;5.80;99.90;;;;;;5055403;28;20037;-67